Time;durP1;ratioP1;P1;durP2;ratioP2;P2;SDS_P1;SDS_P2;PMS_P1;PMS_P2;Temp;Humidity;BMP_temperature;BMP_pressure;BME280_temperature;BME280_humidity;BME280_pressure;Samples;Min_cycle;Max_cycle;Signal;HPM_P1;HPM_P2
2023/08/23 00:01:16;;;;;;;4.00;3.50;;;;;;;28.30;49.29;97732.69;5134156;27;20224;-75
2023/08/23 00:03:41;;;;;;;7.10;3.97;;;;;;;28.24;49.18;97739.09;5119706;27;20279;-75
2023/08/23 00:06:06;;;;;;;6.63;3.90;;;;;;;28.19;49.34;97739.88;5101675;27;20184;-75
2023/08/23 00:08:32;;;;;;;4.80;3.80;;;;;;;28.16;49.35;97743.09;5121501;27;20259;-75
2023/08/23 00:10:57;;;;;;;6.27;3.93;;;;;;;28.11;49.09;97734.94;5122191;27;20231;-76
2023/08/23 00:13:23;;;;;;;4.30;3.70;;;;;;;28.06;49.51;97734.84;5142928;27;20199;-74
2023/08/23 00:15:49;;;;;;;6.13;3.90;;;;;;;27.89;50.49;97733.06;5146182;27;20267;-75
2023/08/23 00:18:15;;;;;;;6.00;3.93;;;;;;;27.84;50.49;97729.50;5140019;27;20191;-75
2023/08/23 00:20:40;;;;;;;4.83;3.50;;;;;;;27.84;50.63;97718.72;5131647;27;20893;-76
2023/08/23 00:23:06;;;;;;;4.97;3.70;;;;;;;27.77;50.71;97718.94;5112776;27;20306;-75
2023/08/23 00:25:31;;;;;;;4.73;3.77;;;;;;;27.79;50.28;97722.16;5140409;27;20208;-76
2023/08/23 00:27:57;;;;;;;6.23;3.73;;;;;;;27.74;50.21;97720.22;5131692;27;20329;-75
2023/08/23 00:30:22;;;;;;;4.53;3.57;;;;;;;27.70;50.42;97713.75;5131835;27;20180;-74
2023/08/23 00:32:48;;;;;;;7.13;3.40;;;;;;;27.69;50.47;97719.34;5132054;27;20545;-75
2023/08/23 00:35:13;;;;;;;6.70;3.80;;;;;;;27.70;50.42;97723.69;5131530;27;20238;-77
2023/08/23 00:37:39;;;;;;;4.00;3.53;;;;;;;27.66;50.53;97720.69;5136818;27;20171;-75
2023/08/23 00:40:09;;;;;;;6.80;3.50;;;;;;;27.58;51.07;97715.75;5145589;27;20184;-76
2023/08/23 00:42:34;;;;;;;4.70;3.40;;;;;;;27.52;50.86;97712.19;5151404;27;20168;-74
2023/08/23 00:45:00;;;;;;;4.63;3.60;;;;;;;27.46;51.02;97717.75;5151835;27;20436;-76
2023/08/23 00:47:25;;;;;;;6.60;3.87;;;;;;;27.41;50.86;97711.19;5153585;27;20172;-76
2023/08/23 00:49:51;;;;;;;3.60;3.30;;;;;;;27.32;51.01;97712.69;5120529;27;20188;-75
2023/08/23 00:52:17;;;;;;;5.53;3.97;;;;;;;27.26;51.12;97713.66;5133827;27;20673;-75
2023/08/23 00:54:44;;;;;;;4.63;3.40;;;;;;;27.18;51.41;97706.84;5130822;27;20188;-75
2023/08/23 00:57:09;;;;;;;4.37;3.83;;;;;;;27.13;51.24;97715.66;5131226;27;20211;-75
2023/08/23 00:59:35;;;;;;;5.20;3.70;;;;;;;27.10;51.26;97716.16;5124909;27;20437;-75
2023/08/23 01:02:01;;;;;;;7.50;4.13;;;;;;;27.16;51.20;97708.97;5135494;27;20180;-77
2023/08/23 01:04:26;;;;;;;4.10;3.70;;;;;;;27.16;51.11;97713.53;5131763;27;20209;-73
2023/08/23 01:07:01;;;;;;;5.57;3.43;;;;;;;27.13;51.17;97714.84;5125509;27;20173;-74
2023/08/23 01:09:45;;;;;;;4.17;3.77;;;;;;;27.09;51.03;97713.72;5130402;27;20176;-75
2023/08/23 01:12:15;;;;;;;5.00;3.57;;;;;;;27.01;51.54;97706.88;5121211;27;20436;-72
2023/08/23 01:14:59;;;;;;;7.60;3.57;;;;;;;27.02;51.63;97713.09;5129723;27;20442;-75
2023/08/23 01:17:26;;;;;;;6.20;3.83;;;;;;;27.01;51.68;97714.16;5112075;27;20457;-74
2023/08/23 01:19:52;;;;;;;10.50;4.20;;;;;;;27.03;51.73;97714.72;5118838;27;20469;-74
2023/08/23 01:22:19;;;;;;;7.00;3.87;;;;;;;27.02;51.80;97724.63;5115870;27;20410;-74
2023/08/23 01:24:46;;;;;;;5.23;4.40;;;;;;;27.05;51.88;97718.78;5150795;27;20456;-75
2023/08/23 01:27:12;;;;;;;4.10;3.70;;;;;;;27.04;52.09;97727.06;5141967;27;20422;-74
2023/08/23 01:29:37;;;;;;;4.40;3.47;;;;;;;27.01;52.01;97725.69;5134644;27;20424;-74
2023/08/23 01:32:16;;;;;;;5.00;4.20;;;;;;;26.98;51.77;97726.19;5143633;27;20633;-74
2023/08/23 01:34:53;;;;;;;4.07;3.33;;;;;;;26.93;52.08;97721.56;5110296;27;20450;-74
2023/08/23 01:37:20;;;;;;;4.20;3.90;;;;;;;26.86;52.37;97720.91;5128108;27;20422;-76
2023/08/23 01:39:46;;;;;;;5.23;4.30;;;;;;;26.88;52.12;97723.34;5111914;28;20916;-74
2023/08/23 01:42:11;;;;;;;7.80;4.07;;;;;;;26.91;51.98;97720.19;5113699;27;20415;-76
2023/08/23 01:44:40;;;;;;;5.53;4.37;;;;;;;26.80;52.49;97714.66;5120310;28;20208;-75
2023/08/23 01:47:06;;;;;;;4.17;3.70;;;;;;;26.79;52.37;97725.63;5138743;27;20180;-73
2023/08/23 01:49:31;;;;;;;5.13;3.60;;;;;;;26.75;52.37;97725.28;5147986;27;20436;-75
2023/08/23 01:51:57;;;;;;;7.70;3.80;;;;;;;26.69;52.54;97734.34;5136761;27;20298;-74
2023/08/23 01:54:22;;;;;;;8.30;4.10;;;;;;;26.63;52.57;97732.59;5112402;27;20200;-74
2023/08/23 01:56:47;;;;;;;6.07;4.03;;;;;;;26.61;52.97;97729.34;5137759;27;20200;-75
2023/08/23 01:59:13;;;;;;;9.20;4.20;;;;;;;26.58;52.92;97732.53;5128888;27;20239;-74
2023/08/23 02:01:38;;;;;;;13.10;4.50;;;;;;;26.57;53.00;97725.53;5119433;27;20303;-74
2023/08/23 02:04:04;;;;;;;3.63;3.33;;;;;;;26.53;52.82;97719.81;5122683;27;20287;-76
2023/08/23 02:06:29;;;;;;;5.10;3.80;;;;;;;26.48;53.15;97722.44;5127940;27;20196;-75
2023/08/23 02:08:55;;;;;;;7.60;4.03;;;;;;;26.45;53.13;97721.06;5129451;27;20193;-75
2023/08/23 02:11:20;;;;;;;9.13;4.50;;;;;;;26.40;53.44;97731.69;5143664;27;20211;-75
2023/08/23 02:13:45;;;;;;;4.50;4.10;;;;;;;26.35;53.28;97726.22;5137994;27;20215;-74
2023/08/23 02:16:11;;;;;;;4.10;3.70;;;;;;;26.34;53.57;97725.44;5138115;27;20272;-75
2023/08/23 02:18:36;;;;;;;10.23;3.80;;;;;;;26.26;53.28;97725.81;5128902;27;20241;-75
2023/08/23 02:21:02;;;;;;;7.00;3.90;;;;;;;26.24;53.64;97727.09;5138568;27;20184;-74
2023/08/23 02:23:27;;;;;;;5.10;3.97;;;;;;;26.24;53.93;97727.09;5134666;27;20199;-73
2023/08/23 02:25:53;;;;;;;7.80;4.23;;;;;;;26.19;53.82;97725.13;5144783;27;20179;-75
2023/08/23 02:28:19;;;;;;;5.20;3.80;;;;;;;26.15;54.20;97727.50;5136393;27;20188;-75
2023/08/23 02:30:44;;;;;;;6.30;4.27;;;;;;;26.19;54.04;97723.28;5145315;27;20179;-74
2023/08/23 02:33:09;;;;;;;4.87;4.10;;;;;;;26.23;53.81;97720.94;5137188;27;20208;-73
2023/08/23 02:35:40;;;;;;;4.90;3.97;;;;;;;26.18;54.24;97716.28;5133163;27;20613;-76
2023/08/23 02:38:08;;;;;;;4.70;4.30;;;;;;;26.20;53.90;97719.56;5130223;27;20314;-74
2023/08/23 02:40:33;;;;;;;5.70;4.50;;;;;;;26.22;54.07;97720.09;5141614;27;20445;-75
2023/08/23 02:42:59;;;;;;;5.13;4.00;;;;;;;26.13;54.44;97713.50;5133183;27;20451;-74
2023/08/23 02:45:24;;;;;;;4.93;4.27;;;;;;;26.11;54.24;97712.13;5134182;27;20248;-74
2023/08/23 02:47:50;;;;;;;7.60;4.37;;;;;;;26.07;54.37;97709.06;5140114;27;20176;-75
2023/08/23 02:50:15;;;;;;;7.93;4.40;;;;;;;26.05;54.52;97711.97;5114370;27;20180;-74
2023/08/23 02:52:40;;;;;;;10.23;4.30;;;;;;;26.01;54.35;97705.47;5140910;27;20676;-75
2023/08/23 02:55:06;;;;;;;8.23;4.40;;;;;;;25.91;54.30;97706.09;5132475;27;20287;-73
2023/08/23 02:57:32;;;;;;;4.60;4.20;;;;;;;25.89;54.67;97691.28;5140762;27;20237;-74
2023/08/23 02:59:57;;;;;;;4.40;4.00;;;;;;;25.86;54.84;97694.44;5141250;27;20195;-74
2023/08/23 03:02:22;;;;;;;4.93;4.43;;;;;;;25.92;54.66;97698.84;5140009;27;20259;-75
2023/08/23 03:04:48;;;;;;;7.43;4.40;;;;;;;25.90;54.40;97703.63;5139198;27;20911;-75
2023/08/23 03:07:13;;;;;;;6.60;4.20;;;;;;;25.88;55.03;97703.88;5132257;27;20187;-75
2023/08/23 03:09:39;;;;;;;4.87;4.33;;;;;;;25.88;54.71;97697.72;5131424;27;20237;-75
2023/08/23 03:12:05;;;;;;;7.67;4.50;;;;;;;25.82;54.68;97696.81;5132960;27;20287;-74
2023/08/23 03:14:30;;;;;;;4.63;4.10;;;;;;;25.69;55.19;97707.81;5140509;27;20192;-74
2023/08/23 03:16:55;;;;;;;6.13;4.70;;;;;;;25.72;55.35;97710.00;5118687;27;20777;-75
2023/08/23 03:19:21;;;;;;;9.60;4.40;;;;;;;25.75;55.01;97709.53;5120699;27;20591;-74
2023/08/23 03:21:46;;;;;;;7.40;4.70;;;;;;;25.73;54.97;97715.16;5131928;27;20265;-74
2023/08/23 03:24:12;;;;;;;13.50;4.80;;;;;;;25.69;55.36;97708.63;5119999;27;20295;-76
2023/08/23 03:26:37;;;;;;;5.60;4.63;;;;;;;25.73;55.28;97711.63;5128641;27;20206;-74
2023/08/23 03:29:03;;;;;;;4.43;4.03;;;;;;;25.75;55.54;97713.03;5125082;27;20279;-75
2023/08/23 03:31:28;;;;;;;8.50;4.67;;;;;;;25.71;55.00;97719.09;5140425;27;20526;-75
2023/08/23 03:33:54;;;;;;;9.40;5.20;;;;;;;25.66;55.27;97727.06;5115371;27;20287;-76
2023/08/23 03:36:19;;;;;;;6.40;5.00;;;;;;;25.65;55.26;97722.75;5120662;27;20714;-75
2023/08/23 03:38:44;;;;;;;10.40;4.67;;;;;;;25.62;55.51;97718.69;5123894;27;20266;-75
2023/08/23 03:41:14;;;;;;;8.90;4.80;;;;;;;25.58;55.75;97720.19;5124759;27;20188;-76
2023/08/23 03:43:39;;;;;;;5.57;4.77;;;;;;;25.56;55.57;97715.06;5121414;27;20229;-75
2023/08/23 03:46:05;;;;;;;5.20;4.70;;;;;;;25.56;55.42;97717.75;5125546;27;20455;-74
2023/08/23 03:48:30;;;;;;;5.80;4.20;;;;;;;25.48;55.71;97711.94;5135982;27;20180;-75
2023/08/23 03:50:59;;;;;;;8.23;4.80;;;;;;;25.41;55.81;97709.38;5131547;27;20180;-74
2023/08/23 03:53:25;;;;;;;5.87;4.83;;;;;;;25.36;56.08;97702.03;5130875;27;20215;-74
2023/08/23 03:55:58;;;;;;;7.93;5.20;;;;;;;25.33;56.00;97693.63;5122654;27;20914;-74
2023/08/23 03:58:23;;;;;;;7.20;4.90;;;;;;;25.38;56.40;97696.41;5119502;27;20193;-75
2023/08/23 04:00:52;;;;;;;5.53;4.93;;;;;;;25.38;55.90;97699.09;5122279;27;20523;-73
2023/08/23 04:03:18;;;;;;;9.20;4.73;;;;;;;25.42;55.92;97697.59;5115381;27;20181;-74
2023/08/23 04:05:43;;;;;;;7.13;4.80;;;;;;;25.41;55.76;97709.38;5120158;27;20564;-74
2023/08/23 04:08:09;;;;;;;9.40;4.60;;;;;;;25.38;55.68;97701.78;5131441;27;20184;-74
2023/08/23 04:10:34;;;;;;;5.00;4.60;;;;;;;25.40;55.85;97705.84;5140108;27;20184;-74
2023/08/23 04:13:00;;;;;;;5.20;4.67;;;;;;;25.33;55.68;97704.38;5138142;27;20231;-76
2023/08/23 04:15:25;;;;;;;6.63;4.87;;;;;;;25.27;56.20;97706.94;5138689;27;20211;-74
2023/08/23 04:17:51;;;;;;;8.30;4.90;;;;;;;25.21;56.44;97710.53;5130785;27;20236;-74
2023/08/23 04:20:16;;;;;;;7.80;5.13;;;;;;;25.24;56.58;97714.63;5130597;27;20194;-74
2023/08/23 04:22:41;;;;;;;13.27;5.50;;;;;;;25.27;56.07;97712.28;5133147;27;20628;-74
2023/08/23 04:25:07;;;;;;;5.77;4.83;;;;;;;25.23;56.30;97719.16;5139495;27;20202;-75
2023/08/23 04:27:33;;;;;;;5.10;4.60;;;;;;;25.22;56.31;97714.84;5129905;27;20285;-75
2023/08/23 04:29:58;;;;;;;7.20;5.20;;;;;;;25.20;56.58;97711.63;5123149;27;20485;-76
2023/08/23 04:32:24;;;;;;;6.17;5.27;;;;;;;25.12;56.33;97711.94;5122481;27;20277;-74
2023/08/23 04:34:49;;;;;;;4.83;4.43;;;;;;;25.10;56.53;97719.41;5139387;27;20215;-74
2023/08/23 04:37:15;;;;;;;9.13;5.20;;;;;;;25.12;56.67;97712.78;5130394;27;20272;-76
2023/08/23 04:39:40;;;;;;;5.73;5.13;;;;;;;25.13;56.74;97722.47;5105981;27;20187;-74
2023/08/23 04:42:06;;;;;;;6.50;5.40;;;;;;;25.15;56.80;97724.91;5122897;27;20181;-74
2023/08/23 04:44:31;;;;;;;5.80;5.30;;;;;;;25.10;56.85;97722.09;5117248;27;20249;-74
2023/08/23 04:46:58;;;;;;;12.20;5.63;;;;;;;25.14;56.92;97724.06;5109957;27;20208;-75
2023/08/23 04:49:23;;;;;;;5.93;5.13;;;;;;;25.22;56.51;97727.47;5126610;27;20202;-74
2023/08/23 04:51:49;;;;;;;9.30;5.27;;;;;;;25.19;56.58;97731.44;5130200;27;20462;-75
2023/08/23 04:54:14;;;;;;;10.93;5.40;;;;;;;25.21;56.37;97726.63;5126925;27;20205;-75
2023/08/23 04:56:40;;;;;;;5.37;4.83;;;;;;;25.18;56.43;97727.13;5112434;27;20200;-76
2023/08/23 04:59:05;;;;;;;8.73;5.10;;;;;;;25.21;56.65;97733.88;5138723;27;20321;-76
2023/08/23 05:01:30;;;;;;;13.40;5.33;;;;;;;25.12;56.43;97730.72;5108071;27;20180;-75
2023/08/23 05:03:56;;;;;;;8.27;4.77;;;;;;;25.12;57.12;97730.72;5138009;27;20203;-74
2023/08/23 05:06:21;;;;;;;6.53;5.40;;;;;;;25.13;56.93;97727.81;5118804;27;20212;-73
2023/08/23 05:08:47;;;;;;;6.93;5.40;;;;;;;25.14;56.95;97732.09;5146042;27;20179;-75
2023/08/23 05:11:12;;;;;;;14.63;5.03;;;;;;;25.16;56.59;97737.25;5130342;27;20180;-75
2023/08/23 05:13:38;;;;;;;6.20;5.60;;;;;;;25.18;57.22;97732.47;5124925;27;20208;-75
2023/08/23 05:16:03;;;;;;;6.93;5.47;;;;;;;25.23;56.68;97732.56;5146312;27;20188;-75
2023/08/23 05:18:29;;;;;;;8.00;5.50;;;;;;;25.23;57.08;97719.16;5130080;27;20195;-75
2023/08/23 05:20:56;;;;;;;6.87;5.80;;;;;;;25.20;57.15;97730.38;5138096;27;20239;-75
2023/08/23 05:23:24;;;;;;;6.73;5.27;;;;;;;25.23;57.06;97726.41;5130040;27;20215;-75
2023/08/23 05:25:53;;;;;;;5.80;5.30;;;;;;;25.27;57.04;97732.91;5101489;27;20478;-76
2023/08/23 05:28:19;;;;;;;7.97;5.00;;;;;;;25.29;56.73;97730.81;5116856;27;20464;-74
2023/08/23 05:30:45;;;;;;;5.70;5.10;;;;;;;25.15;57.15;97741.78;5114265;27;20446;-74
2023/08/23 05:33:11;;;;;;;6.53;5.60;;;;;;;25.08;57.13;97729.53;5082472;28;20458;-75
2023/08/23 05:35:36;;;;;;;8.27;4.53;;;;;;;25.19;57.03;97735.97;5128806;27;20491;-75
2023/08/23 05:38:02;;;;;;;9.57;5.40;;;;;;;25.28;56.77;97729.19;5123894;27;20190;-75
2023/08/23 05:40:27;;;;;;;9.90;6.00;;;;;;;25.33;56.71;97715.91;5138529;27;20180;-75
2023/08/23 05:42:53;;;;;;;7.73;5.47;;;;;;;25.41;57.01;97733.53;5132085;27;20177;-74
2023/08/23 05:45:18;;;;;;;12.10;5.53;;;;;;;25.51;56.60;97723.00;5129605;27;20570;-74
2023/08/23 05:47:44;;;;;;;6.90;6.17;;;;;;;25.55;56.45;97726.88;5130654;27;20184;-73
2023/08/23 05:50:09;;;;;;;10.40;5.63;;;;;;;25.58;56.28;97739.78;5128342;27;20274;-75
2023/08/23 05:52:35;;;;;;;8.20;5.50;;;;;;;25.67;56.52;97742.13;5128557;27;20200;-75
2023/08/23 05:55:00;;;;;;;6.43;5.50;;;;;;;25.74;56.37;97748.16;5129247;27;20219;-75
2023/08/23 05:57:26;;;;;;;5.90;5.10;;;;;;;25.81;56.30;97743.47;5141176;27;20219;-74
2023/08/23 05:59:51;;;;;;;9.37;5.90;;;;;;;25.86;55.76;97745.44;5142457;27;20271;-76
2023/08/23 06:02:16;;;;;;;6.70;5.70;;;;;;;25.91;55.59;97743.69;5133954;27;20187;-75
2023/08/23 06:04:42;;;;;;;10.07;5.70;;;;;;;26.07;55.25;97742.09;5134192;27;20192;-75
2023/08/23 06:07:07;;;;;;;5.80;5.37;;;;;;;26.21;54.99;97748.00;5143303;27;20795;-77
2023/08/23 06:09:33;;;;;;;6.33;5.20;;;;;;;26.35;54.42;97747.72;5119524;27;20184;-75
2023/08/23 06:12:00;;;;;;;6.20;5.60;;;;;;;26.43;53.74;97744.66;5132985;27;20617;-76
2023/08/23 06:14:25;;;;;;;9.80;5.30;;;;;;;26.50;53.22;97750.69;5133438;27;20204;-75
2023/08/23 06:16:51;;;;;;;7.30;5.23;;;;;;;26.69;53.18;97750.47;5141809;27;20425;-76
2023/08/23 06:19:16;;;;;;;12.70;6.17;;;;;;;26.83;52.61;97749.13;5145103;27;20176;-76
2023/08/23 06:21:42;;;;;;;11.97;5.90;;;;;;;27.04;52.64;97748.59;5136146;27;20195;-75
2023/08/23 06:24:08;;;;;;;13.00;5.33;;;;;;;27.17;51.43;97750.94;5141868;27;20196;-75
2023/08/23 06:26:34;;;;;;;8.87;5.07;;;;;;;27.35;51.13;97755.22;5114275;27;20252;-75
2023/08/23 06:28:59;;;;;;;10.73;5.20;;;;;;;27.50;50.12;97756.53;5135902;27;20441;-76
2023/08/23 06:31:25;;;;;;;6.80;5.60;;;;;;;27.61;50.32;97742.13;5137453;27;20172;-74
2023/08/23 06:33:50;;;;;;;11.83;5.20;;;;;;;27.78;50.50;97746.66;5132913;27;20648;-74
2023/08/23 06:36:15;;;;;;;7.70;4.70;;;;;;;27.97;49.93;97744.44;5144517;27;20180;-74
2023/08/23 06:38:41;;;;;;;5.33;4.77;;;;;;;28.08;49.42;97745.38;5138040;27;20586;-75
2023/08/23 06:41:06;;;;;;;10.93;4.90;;;;;;;28.11;48.59;97739.50;5141070;27;20556;-77
2023/08/23 06:43:32;;;;;;;5.70;4.77;;;;;;;28.24;48.15;97744.47;5136760;27;20272;-75
2023/08/23 06:45:57;;;;;;;11.27;4.80;;;;;;;28.33;48.49;97748.38;5132252;27;20226;-74
2023/08/23 06:48:23;;;;;;;5.07;4.57;;;;;;;28.46;48.32;97751.72;5138763;27;20203;-76
2023/08/23 06:50:48;;;;;;;6.60;4.27;;;;;;;28.53;48.01;97746.91;5144741;27;20301;-75
2023/08/23 06:53:14;;;;;;;5.90;4.87;;;;;;;28.62;47.03;97750.75;5148644;27;20291;-76
2023/08/23 06:55:40;;;;;;;7.73;4.70;;;;;;;28.69;47.21;97745.16;5113840;27;20708;-75
2023/08/23 06:58:07;;;;;;;6.80;4.57;;;;;;;28.85;47.07;97754.22;5132323;27;20204;-75
2023/08/23 07:00:33;;;;;;;10.83;4.93;;;;;;;28.96;46.72;97755.94;5141339;27;20414;-74
2023/08/23 07:02:59;;;;;;;5.60;4.53;;;;;;;29.06;46.38;97738.97;5140921;27;20839;-75
2023/08/23 07:05:24;;;;;;;13.63;5.03;;;;;;;29.14;46.00;97751.19;5141025;27;20442;-73
2023/08/23 07:07:50;;;;;;;7.97;4.47;;;;;;;29.19;45.70;97748.53;5125837;27;20557;-76
2023/08/23 07:10:15;;;;;;;6.07;4.43;;;;;;;29.25;45.63;97750.16;5132389;27;20207;-74
2023/08/23 07:12:41;;;;;;;7.80;4.30;;;;;;;29.39;45.35;97747.03;5140228;27;20267;-75
2023/08/23 07:15:06;;;;;;;9.83;5.30;;;;;;;29.52;45.54;97751.16;5133962;27;20227;-75
2023/08/23 07:17:33;;;;;;;9.00;4.67;;;;;;;29.65;44.92;97749.84;5132235;27;20180;-75
2023/08/23 07:19:58;;;;;;;6.80;4.60;;;;;;;29.79;45.20;97753.69;5149339;27;20567;-76
2023/08/23 07:22:24;;;;;;;7.00;5.03;;;;;;;29.90;44.14;97751.84;5132292;27;20418;-75
2023/08/23 07:24:50;;;;;;;6.87;4.70;;;;;;;30.00;44.07;97751.09;5135041;27;20200;-74
2023/08/23 07:27:15;;;;;;;10.40;5.00;;;;;;;30.12;43.96;97748.97;5131495;27;20621;-75
2023/08/23 07:29:40;;;;;;;9.50;5.23;;;;;;;30.18;43.39;97752.50;5148564;27;20187;-74
2023/08/23 07:32:06;;;;;;;7.83;4.77;;;;;;;30.19;43.27;97754.09;5131947;27;20327;-74
2023/08/23 07:34:31;;;;;;;10.80;5.07;;;;;;;30.21;43.72;97756.56;5133816;27;20200;-75
2023/08/23 07:36:57;;;;;;;8.33;4.80;;;;;;;30.33;43.19;97759.81;5131983;27;20168;-74
2023/08/23 07:39:24;;;;;;;6.73;5.27;;;;;;;30.43;42.80;97759.84;5143793;27;20172;-75
2023/08/23 07:41:50;;;;;;;13.67;5.20;;;;;;;30.49;42.73;97766.88;5133778;27;20681;-75
2023/08/23 07:44:15;;;;;;;7.00;4.50;;;;;;;30.48;42.57;97767.97;5148211;27;20438;-75
2023/08/23 07:46:41;;;;;;;5.67;5.17;;;;;;;29.93;43.43;97761.31;5139405;27;20188;-74
2023/08/23 07:49:06;;;;;;;8.70;4.47;;;;;;;30.21;43.59;97756.56;5140623;27;20194;-75
2023/08/23 07:51:32;;;;;;;6.77;4.90;;;;;;;30.53;43.34;97764.44;5129904;27;20180;-75
2023/08/23 07:53:57;;;;;;;9.43;4.87;;;;;;;30.80;42.82;97758.00;5139385;27;20876;-74
2023/08/23 07:56:23;;;;;;;6.20;4.70;;;;;;;31.06;42.31;97766.91;5130694;27;20583;-74
2023/08/23 07:58:48;;;;;;;9.60;4.70;;;;;;;31.29;42.01;97758.50;5139537;27;20262;-75
2023/08/23 08:01:14;;;;;;;6.93;4.30;;;;;;;31.41;40.82;97754.41;5131432;27;20191;-74
2023/08/23 08:03:39;;;;;;;5.57;4.47;;;;;;;31.49;40.31;97750.31;5124094;27;20249;-74
2023/08/23 08:06:05;;;;;;;10.83;4.73;;;;;;;31.58;39.88;97758.69;5128588;27;20215;-75
2023/08/23 08:08:31;;;;;;;12.10;5.40;;;;;;;31.46;39.53;97753.56;5119114;27;20264;-74
2023/08/23 08:10:56;;;;;;;4.73;4.13;;;;;;;31.51;40.43;97760.88;5137572;27;20445;-74
2023/08/23 08:13:22;;;;;;;5.83;4.67;;;;;;;31.59;39.90;97764.91;5142396;27;20365;-74
2023/08/23 08:15:48;;;;;;;8.00;4.70;;;;;;;31.63;39.46;97757.84;5135928;27;20187;-74
2023/08/23 08:18:13;;;;;;;11.63;5.30;;;;;;;31.61;39.48;97766.28;5130113;27;20568;-75
2023/08/23 08:20:38;;;;;;;5.70;4.27;;;;;;;31.77;39.83;97768.94;5136075;27;20190;-75
2023/08/23 08:23:04;;;;;;;8.37;4.27;;;;;;;31.98;39.35;97765.06;5139072;27;20263;-75
2023/08/23 08:25:29;;;;;;;9.60;4.07;;;;;;;31.97;39.39;97765.31;5144513;27;20195;-74
2023/08/23 08:27:55;;;;;;;6.30;4.40;;;;;;;31.88;39.21;97759.69;5141124;27;20647;-74
2023/08/23 08:30:20;;;;;;;8.20;4.50;;;;;;;32.12;39.30;97762.53;5130495;27;20583;-75
2023/08/23 08:32:46;;;;;;;11.67;4.40;;;;;;;32.30;38.54;97755.66;5138402;27;20192;-74
2023/08/23 08:35:11;;;;;;;5.80;4.73;;;;;;;32.51;38.36;97752.00;5141463;27;20208;-74
2023/08/23 08:37:37;;;;;;;7.90;4.57;;;;;;;32.78;38.32;97757.75;5123880;27;20248;-75
2023/08/23 08:40:03;;;;;;;4.83;4.33;;;;;;;33.00;37.43;97756.50;5140153;27;20177;-75
2023/08/23 08:42:29;;;;;;;5.20;4.70;;;;;;;33.16;36.86;97745.50;5139822;27;20792;-74
2023/08/23 08:44:54;;;;;;;10.93;5.10;;;;;;;33.35;36.62;97756.47;5121889;27;20473;-75
2023/08/23 08:47:22;;;;;;;9.10;4.57;;;;;;;33.46;36.04;97763.41;5138770;27;20207;-74
2023/08/23 08:49:47;;;;;;;6.60;4.40;;;;;;;33.58;36.53;97767.59;5130289;27;20207;-75
2023/08/23 08:52:14;;;;;;;9.40;4.30;;;;;;;33.74;36.21;97762.78;5141211;27;20876;-74
2023/08/23 08:54:41;;;;;;;6.30;4.60;;;;;;;33.89;35.75;97767.28;5119293;27;20196;-74
2023/08/23 08:57:07;;;;;;;9.07;4.30;;;;;;;34.04;35.45;97764.34;5131761;27;20788;-75
2023/08/23 08:59:33;;;;;;;9.53;4.67;;;;;;;34.14;35.21;97771.53;5112110;27;20422;-75
2023/08/23 09:01:59;;;;;;;9.07;4.70;;;;;;;34.20;35.18;97773.09;5111956;27;20262;-75
2023/08/23 09:04:25;;;;;;;8.33;4.47;;;;;;;34.40;35.36;97765.75;5130653;27;20539;-76
2023/08/23 09:06:51;;;;;;;8.20;4.60;;;;;;;34.53;34.79;97766.94;5123941;27;20217;-76
2023/08/23 09:09:17;;;;;;;6.40;4.10;;;;;;;34.59;34.35;97765.75;5108090;27;20192;-74
2023/08/23 09:11:42;;;;;;;6.90;4.07;;;;;;;34.73;34.10;97760.34;5118547;27;20427;-75
2023/08/23 09:14:17;;;;;;;13.13;4.50;;;;;;;34.89;33.85;97763.63;5132070;27;20362;-76
2023/08/23 09:16:43;;;;;;;6.30;4.00;;;;;;;35.04;33.45;97768.81;5134899;27;20176;-75
2023/08/23 09:19:13;;;;;;;7.80;4.17;;;;;;;35.13;33.41;97774.38;5136788;27;20504;-76
2023/08/23 09:21:45;;;;;;;10.43;4.37;;;;;;;35.19;33.35;97775.91;5137196;27;20949;-76
2023/08/23 09:24:11;;;;;;;8.63;4.77;;;;;;;35.33;32.72;97777.84;5129338;27;20451;-76
2023/08/23 09:26:37;;;;;;;6.53;4.23;;;;;;;35.55;32.91;97776.38;5141831;27;20439;-75
2023/08/23 09:29:03;;;;;;;8.47;4.27;;;;;;;35.59;32.68;97778.19;5147136;27;20440;-77
2023/08/23 09:31:29;;;;;;;8.13;4.40;;;;;;;35.75;32.29;97778.69;5142415;27;20504;-76
2023/08/23 09:33:54;;;;;;;4.50;3.50;;;;;;;35.72;31.83;97778.47;5137512;27;20536;-74
2023/08/23 09:36:40;;;;;;;13.10;4.87;;;;;;;35.65;32.22;97768.81;5127376;27;20796;-75
2023/08/23 09:39:17;;;;;;;10.93;4.40;;;;;;;35.61;32.40;97773.25;5128225;27;20167;-75
2023/08/23 09:41:43;;;;;;;7.43;4.23;;;;;;;35.67;32.15;97769.28;5139723;27;20420;-76
2023/08/23 09:44:09;;;;;;;6.93;4.10;;;;;;;35.85;31.87;97772.22;5131351;27;20528;-76
2023/08/23 09:46:35;;;;;;;10.30;3.90;;;;;;;35.87;32.18;97761.81;5129520;27;20242;-75
2023/08/23 09:49:05;;;;;;;6.93;4.37;;;;;;;36.07;31.48;97757.03;5129213;27;20179;-74
2023/08/23 09:51:34;;;;;;;5.50;4.17;;;;;;;36.03;31.65;97745.97;5123934;27;20422;-74
2023/08/23 09:54:05;;;;;;;6.00;3.90;;;;;;;36.17;31.78;97745.91;5134738;27;20449;-75
2023/08/23 09:56:30;;;;;;;17.20;4.10;;;;;;;36.32;31.29;97750.22;5111440;28;20409;-74
2023/08/23 09:58:56;;;;;;;4.33;3.70;;;;;;;36.57;31.45;97743.34;5118763;27;20424;-74
2023/08/23 10:01:24;;;;;;;4.70;3.80;;;;;;;36.68;30.78;97740.38;5138368;27;20172;-76
2023/08/23 10:03:50;;;;;;;5.43;3.80;;;;;;;36.76;30.42;97738.81;5129381;27;20511;-74
2023/08/23 10:06:15;;;;;;;6.57;3.73;;;;;;;36.74;30.13;97733.69;5110396;27;20416;-74
2023/08/23 10:08:42;;;;;;;7.77;3.87;;;;;;;36.81;30.60;97742.22;5137232;27;20215;-75
2023/08/23 10:11:08;;;;;;;5.40;3.83;;;;;;;37.01;30.08;97742.84;5131673;27;20866;-74
2023/08/23 10:13:34;;;;;;;6.53;4.07;;;;;;;37.12;30.29;97741.47;5142154;27;20472;-75
2023/08/23 10:16:01;;;;;;;5.87;3.00;;;;;;;37.30;29.91;97747.00;5133008;27;20176;-75
2023/08/23 10:18:29;;;;;;;6.87;3.90;;;;;;;37.33;29.18;97741.72;5102219;27;20405;-76
2023/08/23 10:20:54;;;;;;;4.80;3.50;;;;;;;37.37;29.71;97743.78;5107215;28;20580;-75
2023/08/23 10:23:21;;;;;;;5.00;3.30;;;;;;;37.50;28.92;97740.16;5113118;27;20413;-75
2023/08/23 10:25:46;;;;;;;9.10;3.70;;;;;;;37.63;28.82;97732.97;5149627;27;20647;-75
2023/08/23 10:28:14;;;;;;;6.67;3.40;;;;;;;37.67;29.05;97733.97;5139151;27;20519;-75
2023/08/23 10:30:42;;;;;;;5.80;3.13;;;;;;;37.79;28.50;97736.06;5129486;27;20183;-75
2023/08/23 10:33:13;;;;;;;7.63;3.90;;;;;;;37.73;28.33;97731.88;5137958;27;20457;-75
2023/08/23 10:35:40;;;;;;;4.80;3.40;;;;;;;37.80;28.73;97733.03;5142690;27;21018;-74
2023/08/23 10:38:07;;;;;;;6.20;3.43;;;;;;;37.92;28.07;97729.69;5121807;27;20425;-76
2023/08/23 10:40:33;;;;;;;4.17;3.63;;;;;;;38.00;27.97;97730.00;5137371;27;20489;-76
2023/08/23 10:43:03;;;;;;;8.27;3.57;;;;;;;37.98;28.10;97732.28;5130270;27;20509;-75
2023/08/23 10:45:29;;;;;;;6.43;3.70;;;;;;;37.88;28.27;97727.91;5124012;27;20199;-75
2023/08/23 10:47:54;;;;;;;6.87;3.50;;;;;;;37.93;27.81;97731.28;5139836;27;20435;-75
2023/08/23 10:50:20;;;;;;;11.73;3.40;;;;;;;37.97;27.99;97725.19;5135969;27;20214;-75
2023/08/23 10:52:51;;;;;;;6.40;3.80;;;;;;;38.07;28.04;97727.59;5139013;27;20191;-75
2023/08/23 10:55:17;;;;;;;7.87;3.20;;;;;;;37.91;27.82;97727.28;5133662;27;20283;-75
2023/08/23 10:57:42;;;;;;;4.13;3.30;;;;;;;37.99;28.21;97729.19;5147535;27;20428;-75
2023/08/23 11:00:08;;;;;;;6.40;3.70;;;;;;;38.12;28.18;97730.19;5132440;27;20175;-75
2023/08/23 11:02:34;;;;;;;7.27;3.90;;;;;;;38.05;27.44;97733.41;5137268;27;20186;-74
2023/08/23 11:04:59;;;;;;;8.80;3.70;;;;;;;38.00;27.97;97725.34;5144640;27;20206;-75
2023/08/23 11:07:26;;;;;;;6.30;3.17;;;;;;;38.13;28.56;97728.25;5132689;27;20187;-75
2023/08/23 11:09:51;;;;;;;8.43;3.50;;;;;;;38.31;28.04;97724.34;5128449;27;20549;-74
2023/08/23 11:12:18;;;;;;;9.90;3.37;;;;;;;38.54;27.88;97727.75;5133081;27;20457;-75
2023/08/23 11:14:43;;;;;;;5.60;3.80;;;;;;;38.62;26.93;97726.13;5144208;27;20206;-75
2023/08/23 11:17:09;;;;;;;6.70;2.97;;;;;;;38.60;26.97;97722.91;5144190;27;20416;-76
2023/08/23 11:19:34;;;;;;;6.60;3.30;;;;;;;38.43;26.95;97721.00;5132125;27;20210;-76
2023/08/23 11:22:00;;;;;;;7.30;3.13;;;;;;;38.40;27.31;97717.00;5123689;27;20183;-75
2023/08/23 11:24:26;;;;;;;8.00;3.67;;;;;;;38.40;27.06;97711.53;5140316;27;20669;-75
2023/08/23 11:26:51;;;;;;;7.83;3.30;;;;;;;38.59;27.65;97707.63;5134155;27;20271;-75